Terminal Aerodrome Forecast
Issued by NWS Sterling, VA

Current Version | Previous Version | Text Only | Print | Product List | Glossary Off
Versions: 1 2 3 4 5 6 7 8 9 10 11 12 13 14

000
FTUS41 KLWX 221457 AAA
TAFMRB
TAF AMD
KMRB 221457Z 2215/2312 VRB03KT P6SM BKN250
     FM221800 26007KT P6SM SCT060 BKN250
     FM222000 26008KT P6SM VCTS BKN050CB
     FM230100 27005KT P6SM SCT080 SCT250=

USA.gov is the U.S. government's official web portal to all federal, state and local government web resources and services.